Time;durP1;ratioP1;P1;durP2;ratioP2;P2;SDS_P1;SDS_P2;PMS_P1;PMS_P2;Temp;Humidity;BMP_temperature;BMP_pressure;BME280_temperature;BME280_humidity;BME280_pressure;Samples;Min_cycle;Max_cycle;Signal;HPM_P1;HPM_P2
2023/08/20 04:22:32;;;;;;;28.58;16.65;;;;;;;20.02;100.00;100547.78;5089397;28;20393;-70
2023/08/20 04:24:58;;;;;;;29.30;17.02;;;;;;;20.00;100.00;100545.28;5088196;28;20040;-69
2023/08/20 04:27:25;;;;;;;29.23;17.47;;;;;;;20.00;100.00;100547.16;5087851;28;20036;-70
2023/08/20 04:29:50;;;;;;;31.10;17.40;;;;;;;20.04;100.00;100549.19;5087737;28;20032;-69
2023/08/20 04:32:16;;;;;;;26.40;16.60;;;;;;;20.04;100.00;100540.28;5087960;28;20041;-70
2023/08/20 04:34:41;;;;;;;29.08;17.00;;;;;;;20.04;100.00;100540.28;5089295;28;20526;-69
2023/08/20 04:37:06;;;;;;;31.48;17.25;;;;;;;20.07;100.00;100550.63;5089189;28;20032;-68
2023/08/20 04:39:32;;;;;;;26.35;16.55;;;;;;;20.08;100.00;100556.84;5087443;28;20048;-68
2023/08/20 04:42:00;;;;;;;25.98;16.83;;;;;;;20.09;100.00;100562.06;5087822;28;20040;-69
2023/08/20 04:44:26;;;;;;;25.42;16.05;;;;;;;20.09;100.00;100572.03;5087770;28;20044;-69
2023/08/20 04:46:53;;;;;;;29.63;16.45;;;;;;;20.10;100.00;100566.41;5087611;28;20086;-69
2023/08/20 04:49:18;;;;;;;24.65;15.48;;;;;;;20.09;100.00;100567.47;5087334;28;20071;-69
2023/08/20 04:51:44;;;;;;;24.63;14.90;;;;;;;20.15;100.00;100569.25;5087572;28;20048;-69
2023/08/20 04:54:09;;;;;;;26.63;16.48;;;;;;;20.18;100.00;100562.56;5088891;28;20032;-68
2023/08/20 04:56:35;;;;;;;23.65;14.43;;;;;;;20.16;100.00;100567.38;5087433;28;20036;-68
2023/08/20 04:59:00;;;;;;;28.38;15.50;;;;;;;20.12;100.00;100580.50;5087178;28;20036;-69
2023/08/20 05:01:44;;;;;;;22.50;14.73;;;;;;;20.15;100.00;100579.22;5088953;28;20070;-69
2023/08/20 05:04:11;;;;;;;24.70;14.45;;;;;;;20.19;100.00;100578.53;5087309;28;20036;-68
2023/08/20 05:06:37;;;;;;;26.48;15.30;;;;;;;20.21;100.00;100578.31;5070484;28;20070;-68
2023/08/20 05:09:03;;;;;;;21.80;14.00;;;;;;;20.19;100.00;100586.66;5087064;28;20032;-70
2023/08/20 05:11:31;;;;;;;23.13;13.43;;;;;;;20.20;100.00;100577.47;5087209;28;20055;-67
2023/08/20 05:13:56;;;;;;;19.83;13.95;;;;;;;20.25;100.00;100584.91;5087234;28;20068;-69
2023/08/20 05:16:23;;;;;;;22.05;13.52;;;;;;;20.29;100.00;100594.25;5087066;28;20125;-53
2023/08/20 05:18:49;;;;;;;22.52;15.75;;;;;;;20.28;100.00;100589.88;5086881;28;20101;-56
2023/08/20 05:21:15;;;;;;;22.33;15.57;;;;;;;20.30;100.00;100594.00;5086855;28;20028;-56
2023/08/20 05:23:40;;;;;;;27.35;15.52;;;;;;;20.38;100.00;100597.44;5086997;28;20035;-54
2023/08/20 05:26:07;;;;;;;24.05;16.17;;;;;;;20.38;100.00;100589.31;5087979;28;20032;-53
2023/08/20 05:28:33;;;;;;;43.33;26.07;;;;;;;20.46;100.00;100586.31;5086649;28;20048;-54
2023/08/20 05:30:59;;;;;;;51.35;30.92;;;;;;;20.52;100.00;100588.94;5088094;28;20032;-53
2023/08/20 05:33:25;;;;;;;31.92;20.80;;;;;;;20.55;100.00;100585.78;5076067;28;20060;-56
2023/08/20 05:35:51;;;;;;;30.33;19.38;;;;;;;20.60;100.00;100579.66;5073235;28;20056;-54
2023/08/20 05:38:17;;;;;;;31.05;20.02;;;;;;;20.66;100.00;100581.44;5073212;28;20064;-55
2023/08/20 05:40:44;;;;;;;27.67;17.35;;;;;;;20.78;100.00;100590.41;5072930;28;20451;-55
2023/08/20 05:43:09;;;;;;;22.13;15.05;;;;;;;20.86;100.00;100598.22;5073150;28;20040;-55
2023/08/20 05:45:36;;;;;;;45.13;27.60;;;;;;;20.98;100.00;100602.81;5072975;28;20039;-55
2023/08/20 05:48:01;;;;;;;40.78;22.95;;;;;;;21.05;100.00;100604.34;5073069;28;20494;-56
2023/08/20 05:50:26;;;;;;;25.02;16.08;;;;;;;21.12;100.00;100606.94;5073610;28;20085;-55
2023/08/20 05:52:52;;;;;;;30.73;18.95;;;;;;;21.19;100.00;100607.69;5074114;28;20072;-52
2023/08/20 05:55:18;;;;;;;44.05;24.48;;;;;;;21.29;100.00;100613.38;5072643;28;20111;-53
2023/08/20 05:57:44;;;;;;;28.50;16.85;;;;;;;21.38;100.00;100605.69;5074270;28;20058;-58
2023/08/20 06:00:10;;;;;;;28.48;16.20;;;;;;;21.46;100.00;100615.38;5072467;28;20028;-58
2023/08/20 06:02:38;;;;;;;22.15;15.57;;;;;;;21.54;100.00;100615.03;5074223;28;20120;-57
2023/08/20 06:05:04;;;;;;;34.95;23.63;;;;;;;21.59;100.00;100621.38;5072539;28;20052;-57
2023/08/20 06:07:33;;;;;;;21.23;14.45;;;;;;;21.67;100.00;100617.50;5073955;28;20040;-58
2023/08/20 06:09:59;;;;;;;23.35;13.85;;;;;;;21.72;100.00;100631.16;5073249;28;20043;-58
2023/08/20 06:12:24;;;;;;;18.45;12.93;;;;;;;21.77;100.00;100635.84;5073873;28;20040;-55
2023/08/20 06:14:49;;;;;;;15.88;12.10;;;;;;;21.81;100.00;100635.16;5073912;28;20385;-59
2023/08/20 06:17:15;;;;;;;20.52;12.73;;;;;;;21.86;100.00;100629.84;5073778;28;20044;-58
2023/08/20 06:19:41;;;;;;;22.35;12.90;;;;;;;21.91;100.00;100631.84;5073608;28;20036;-57
2023/08/20 06:22:06;;;;;;;20.77;13.02;;;;;;;21.92;100.00;100634.31;5072325;28;20029;-54
2023/08/20 06:24:32;;;;;;;19.73;13.60;;;;;;;21.98;100.00;100637.97;5073586;28;20068;-57
2023/08/20 06:26:57;;;;;;;40.13;24.50;;;;;;;21.99;100.00;100631.47;5073548;28;20045;-57
2023/08/20 06:29:23;;;;;;;34.28;21.42;;;;;;;22.00;100.00;100643.13;5073162;28;20056;-59
2023/08/20 06:31:49;;;;;;;28.70;18.13;;;;;;;22.00;100.00;100646.69;5073615;28;20499;-57
2023/08/20 06:34:14;;;;;;;20.73;13.18;;;;;;;22.04;100.00;100638.88;5073512;28;20042;-55
2023/08/20 06:36:40;;;;;;;22.27;15.40;;;;;;;22.04;100.00;100647.84;5073431;28;20093;-58
2023/08/20 06:39:05;;;;;;;23.20;14.48;;;;;;;22.07;100.00;100646.53;5071783;28;20646;-57
2023/08/20 06:41:31;;;;;;;18.83;13.15;;;;;;;22.06;100.00;100651.16;5073369;28;20060;-60
2023/08/20 06:43:56;;;;;;;21.40;13.70;;;;;;;22.08;100.00;100642.75;5072247;28;20037;-58
2023/08/20 06:46:22;;;;;;;23.15;14.05;;;;;;;22.19;100.00;100650.91;5062071;28;20055;-57
2023/08/20 06:48:47;;;;;;;19.25;13.77;;;;;;;22.28;100.00;100653.25;5063852;28;20071;-59
2023/08/20 06:51:13;;;;;;;19.27;13.43;;;;;;;22.39;100.00;100644.25;5057942;28;20090;-59
2023/08/20 06:53:40;;;;;;;21.67;13.90;;;;;;;22.52;100.00;100643.13;5053012;28;20036;-57
2023/08/20 06:56:11;;;;;;;21.42;12.73;;;;;;;22.64;100.00;100644.72;5053138;28;20116;-58
2023/08/20 06:58:37;;;;;;;17.88;12.73;;;;;;;22.77;100.00;100649.03;5052820;28;20102;-59
2023/08/20 07:01:09;;;;;;;16.42;10.80;;;;;;;22.90;100.00;100653.38;5063034;28;20067;-59
2023/08/20 07:03:37;;;;;;;17.40;12.30;;;;;;;23.02;100.00;100654.13;5060208;28;20063;-58
2023/08/20 07:06:02;;;;;;;21.50;11.77;;;;;;;23.13;100.00;100645.06;5081766;28;20431;-59
2023/08/20 07:08:28;;;;;;;14.30;9.90;;;;;;;23.21;100.00;100646.53;5069109;28;20070;-59
2023/08/20 07:10:53;;;;;;;14.93;10.88;;;;;;;23.29;100.00;100652.41;5077976;28;20246;-60
2023/08/20 07:13:19;;;;;;;16.63;11.15;;;;;;;23.44;100.00;100659.97;5072536;28;20021;-60
2023/08/20 07:15:44;;;;;;;17.00;11.02;;;;;;;23.52;100.00;100656.84;5072605;28;20111;-60
2023/08/20 07:18:13;;;;;;;15.77;10.75;;;;;;;23.61;100.00;100659.16;5072651;28;20431;-60
2023/08/20 07:20:47;;;;;;;16.30;9.98;;;;;;;23.72;100.00;100656.34;5072252;28;20487;-60
2023/08/20 07:23:13;;;;;;;17.65;10.20;;;;;;;23.79;100.00;100658.88;5072504;28;20040;-60
2023/08/20 07:25:40;;;;;;;15.10;10.48;;;;;;;23.87;100.00;100658.47;5072418;28;20119;-61
2023/08/20 07:28:08;;;;;;;13.45;9.73;;;;;;;23.95;100.00;100663.47;5072414;28;20043;-59
2023/08/20 07:30:34;;;;;;;15.93;10.95;;;;;;;23.99;100.00;100659.16;5072620;28;20119;-58
2023/08/20 07:33:00;;;;;;;17.50;10.30;;;;;;;23.97;100.00;100666.75;5072420;28;20044;-59
2023/08/20 07:35:25;;;;;;;17.67;9.77;;;;;;;23.97;100.00;100671.38;5072191;28;20033;-57
2023/08/20 07:37:50;;;;;;;14.02;10.23;;;;;;;23.92;100.00;100666.69;5072273;28;20388;-56
2023/08/20 07:40:16;;;;;;;14.07;10.43;;;;;;;23.96;100.00;100667.84;5071946;28;20128;-55
2023/08/20 07:42:42;;;;;;;14.48;9.35;;;;;;;24.05;100.00;100668.22;5072251;28;20082;-67
2023/08/20 07:45:08;;;;;;;13.60;9.90;;;;;;;24.06;100.00;100667.13;5072129;28;20445;-69
2023/08/20 07:47:35;;;;;;;13.52;9.55;;;;;;;24.13;100.00;100672.41;5072117;28;20032;-68
2023/08/20 07:50:00;;;;;;;14.48;9.88;;;;;;;24.18;100.00;100670.56;5071792;28;20051;-67
2023/08/20 07:52:26;;;;;;;17.38;9.85;;;;;;;24.19;100.00;100664.06;5071989;28;20495;-69
2023/08/20 07:54:51;;;;;;;14.18;10.57;;;;;;;24.29;100.00;100672.34;5071925;28;20524;-68
2023/08/20 07:57:16;;;;;;;16.30;10.52;;;;;;;24.37;100.00;100671.09;5070622;28;20041;-67
2023/08/20 07:59:42;;;;;;;12.27;8.60;;;;;;;24.40;100.00;100673.31;5071686;28;20402;-68
2023/08/20 08:02:07;;;;;;;17.55;10.88;;;;;;;24.52;100.00;100681.38;5072037;28;20108;-69
2023/08/20 08:04:34;;;;;;;15.45;9.65;;;;;;;24.66;100.00;100677.16;5071877;28;20044;-67
2023/08/20 08:07:00;;;;;;;13.55;10.05;;;;;;;24.73;100.00;100685.94;5071871;28;20040;-70
2023/08/20 08:09:30;;;;;;;13.25;10.05;;;;;;;24.80;100.00;100677.56;5071576;28;20041;-67
2023/08/20 08:11:56;;;;;;;12.77;9.25;;;;;;;24.87;100.00;100672.72;5071851;28;20032;-69
2023/08/20 08:14:22;;;;;;;16.00;8.98;;;;;;;24.94;100.00;100675.25;5071831;28;20072;-69
2023/08/20 08:16:47;;;;;;;14.65;9.18;;;;;;;25.04;98.43;100681.66;5071677;28;20071;-67
2023/08/20 08:19:13;;;;;;;16.17;9.95;;;;;;;25.08;97.87;100680.03;5071657;28;20040;-68
2023/08/20 08:21:39;;;;;;;14.18;9.07;;;;;;;25.15;98.75;100683.38;5071571;28;20029;-67
2023/08/20 08:24:04;;;;;;;15.95;9.98;;;;;;;25.27;97.29;100685.13;5071806;28;20441;-67
2023/08/20 08:26:30;;;;;;;15.18;9.43;;;;;;;25.32;97.10;100691.44;5071415;28;20044;-68
2023/08/20 08:28:56;;;;;;;13.65;9.48;;;;;;;25.34;96.24;100686.53;5071449;28;20103;-69
2023/08/20 08:31:21;;;;;;;12.15;9.57;;;;;;;25.46;96.90;100694.53;5071579;28;20037;-67
2023/08/20 08:33:47;;;;;;;12.65;9.35;;;;;;;25.53;95.48;100686.97;5071675;28;20025;-67
2023/08/20 08:36:12;;;;;;;16.10;9.57;;;;;;;25.60;96.38;100695.72;5071495;28;20127;-66
2023/08/20 08:38:38;;;;;;;12.93;8.93;;;;;;;25.68;96.06;100687.06;5071265;28;20122;-69
2023/08/20 08:41:10;;;;;;;11.65;9.00;;;;;;;25.84;93.56;100689.94;5071633;28;20127;-66
2023/08/20 08:43:36;;;;;;;12.70;8.73;;;;;;;25.91;92.91;100693.25;5071596;28;20086;-68
2023/08/20 08:46:07;;;;;;;14.00;9.07;;;;;;;25.96;92.26;100693.28;5071511;28;20083;-67
2023/08/20 08:48:35;;;;;;;14.02;9.73;;;;;;;25.99;91.94;100692.72;5071293;28;20282;-66
2023/08/20 08:51:01;;;;;;;13.25;8.70;;;;;;;26.04;92.38;100700.97;5071388;28;20033;-67
2023/08/20 08:53:27;;;;;;;10.67;8.57;;;;;;;26.15;92.23;100690.94;5071508;28;20020;-67
2023/08/20 08:55:52;;;;;;;15.85;8.93;;;;;;;26.25;92.08;100690.94;5071320;28;20044;-67
2023/08/20 08:58:18;;;;;;;13.52;9.02;;;;;;;26.34;91.97;100693.97;5071380;28;20170;-66
2023/08/20 09:00:43;;;;;;;11.98;8.00;;;;;;;26.43;91.41;100695.97;5071173;28;20041;-67
2023/08/20 09:03:08;;;;;;;12.13;8.70;;;;;;;26.56;89.08;100693.84;5071375;28;20049;-68
2023/08/20 09:05:48;;;;;;;14.40;7.80;;;;;;;26.63;87.32;100692.50;5071258;28;20146;-67
2023/08/20 09:08:21;;;;;;;10.13;7.80;;;;;;;26.74;87.20;100691.44;5073300;28;20040;-66
2023/08/20 09:10:50;;;;;;;11.88;8.35;;;;;;;26.84;87.89;100692.53;5074832;28;20036;-68
2023/08/20 09:13:15;;;;;;;11.40;8.88;;;;;;;26.98;85.99;100704.56;5074957;28;20035;-67
2023/08/20 09:15:41;;;;;;;13.45;8.30;;;;;;;27.10;87.46;100691.50;5074882;28;20115;-67
2023/08/20 09:18:09;;;;;;;9.98;7.38;;;;;;;27.27;86.76;100685.78;5074952;28;20411;-67
2023/08/20 09:20:38;;;;;;;12.02;8.50;;;;;;;27.36;83.93;100691.53;5074447;28;20032;-67
2023/08/20 09:23:11;;;;;;;10.52;7.90;;;;;;;27.43;82.74;100690.13;5074829;28;20055;-66
2023/08/20 09:25:36;;;;;;;10.13;7.60;;;;;;;27.55;82.12;100698.88;5074725;28;20090;-68
2023/08/20 09:28:03;;;;;;;12.75;7.65;;;;;;;27.69;81.38;100699.16;5074786;28;20028;-66
2023/08/20 09:30:29;;;;;;;11.77;7.93;;;;;;;27.83;79.78;100693.94;5074466;28;20045;-68
2023/08/20 09:33:08;;;;;;;11.25;7.43;;;;;;;28.05;78.70;100696.38;5074647;28;20070;-66
2023/08/20 09:35:33;;;;;;;11.60;7.47;;;;;;;28.24;76.12;100702.88;5074523;28;20055;-67
2023/08/20 09:38:03;;;;;;;8.27;6.97;;;;;;;28.41;76.44;100704.47;5074450;28;20025;-67
2023/08/20 09:40:30;;;;;;;8.23;7.03;;;;;;;28.59;76.24;100701.09;5074354;28;20064;-68
2023/08/20 09:42:56;;;;;;;10.10;7.55;;;;;;;28.77;75.41;100703.19;5074490;28;20093;-68
2023/08/20 09:45:24;;;;;;;7.63;6.65;;;;;;;29.01;73.43;100710.72;5074492;28;20032;-66
2023/08/20 09:47:55;;;;;;;9.32;7.18;;;;;;;29.13;72.65;100706.53;5074465;28;20119;-69
2023/08/20 09:50:22;;;;;;;9.50;7.30;;;;;;;29.42;71.51;100698.34;5074052;28;20136;-66
2023/08/20 09:53:03;;;;;;;9.70;6.82;;;;;;;29.66;69.85;100701.16;5074228;28;20432;-67
2023/08/20 09:55:33;;;;;;;9.20;6.85;;;;;;;30.03;70.16;100693.38;5074256;28;20055;-66
2023/08/20 09:58:00;;;;;;;9.68;6.40;;;;;;;30.28;67.08;100695.84;5074256;28;20032;-66
2023/08/20 10:00:26;;;;;;;10.60;7.10;;;;;;;30.26;66.09;100698.09;5074025;28;20415;-68
2023/08/20 10:02:53;;;;;;;10.73;6.47;;;;;;;30.76;64.86;100693.84;5074149;28;20037;-67
2023/08/20 10:05:20;;;;;;;7.28;6.28;;;;;;;31.27;62.15;100698.59;5073807;28;20036;-67
2023/08/20 10:07:47;;;;;;;9.82;6.45;;;;;;;31.73;60.55;100688.69;5074003;28;20037;-67
2023/08/20 10:10:13;;;;;;;9.50;6.35;;;;;;;31.55;57.70;100682.94;5073827;28;20039;-68
2023/08/20 10:12:40;;;;;;;8.60;6.23;;;;;;;31.83;57.44;100680.28;5073769;28;20425;-68
2023/08/20 10:15:07;;;;;;;;;;;;;;;32.06;56.59;100678.44;5074289;28;20043;-68
2023/08/20 10:17:33;;;;;;;8.95;5.90;;;;;;;32.22;54.26;100689.97;5073726;28;19963;-68
2023/08/20 10:20:00;;;;;;;7.07;5.70;;;;;;;32.33;53.88;100686.72;5073440;28;20044;-68
2023/08/20 10:22:43;;;;;;;7.78;5.82;;;;;;;32.83;55.00;100680.38;5073671;28;20028;-68
2023/08/20 10:25:29;;;;;;;8.63;6.20;;;;;;;32.82;52.33;100676.81;5073620;28;20033;-67
2023/08/20 10:28:12;;;;;;;8.13;5.20;;;;;;;32.99;49.71;100680.84;5073386;28;20399;-68
2023/08/20 10:30:37;;;;;;;8.15;5.38;;;;;;;33.46;49.55;100679.44;5073322;28;20121;-68
2023/08/20 10:33:03;;;;;;;7.20;5.83;;;;;;;33.48;50.13;100682.69;5073626;28;20060;-68
2023/08/20 10:35:49;;;;;;;6.83;5.37;;;;;;;33.23;49.17;100678.59;5073619;28;20497;-68
2023/08/20 10:38:16;;;;;;;8.77;5.32;;;;;;;33.59;48.21;100659.19;5073353;28;20113;-68
2023/08/20 10:41:00;;;;;;;6.78;5.32;;;;;;;33.50;50.63;100666.59;5073242;28;20503;-68
2023/08/20 10:43:25;;;;;;;12.10;5.75;;;;;;;34.05;48.02;100666.22;5073335;28;20078;-68
2023/08/20 10:46:25;;;;;;;7.47;5.57;;;;;;;34.34;47.45;100660.09;5073242;28;20028;-68
2023/08/20 10:48:55;;;;;;;7.57;5.10;;;;;;;34.53;46.61;100668.13;5072896;28;20067;-69
2023/08/20 10:51:23;;;;;;;7.85;5.55;;;;;;;34.48;46.13;100665.53;5073061;28;20131;-69
2023/08/20 10:54:01;;;;;;;7.20;5.07;;;;;;;34.89;47.06;100672.56;5073114;28;20032;-68
2023/08/20 10:56:40;;;;;;;5.85;5.13;;;;;;;35.03;45.28;100665.72;5072998;28;20032;-69
2023/08/20 10:59:14;;;;;;;5.43;4.88;;;;;;;35.04;45.14;100649.94;5072835;28;20032;-69
2023/08/20 11:01:42;;;;;;;6.35;5.22;;;;;;;35.29;44.60;100662.91;5072889;28;20047;-69
2023/08/20 11:04:08;;;;;;;5.53;4.78;;;;;;;35.59;43.00;100663.00;5073009;28;20033;-68
2023/08/20 11:06:34;;;;;;;6.68;4.95;;;;;;;35.44;44.05;100658.00;5072904;28;20060;-68
2023/08/20 11:09:00;;;;;;;5.63;5.03;;;;;;;35.75;43.60;100658.56;5072572;28;20064;-69
2023/08/20 11:11:26;;;;;;;6.18;5.05;;;;;;;35.99;43.39;100646.06;5072691;28;20036;-69
2023/08/20 11:13:51;;;;;;;7.37;4.90;;;;;;;35.82;43.24;100658.84;5072672;28;20479;-68
2023/08/20 11:16:17;;;;;;;5.63;4.90;;;;;;;36.08;42.83;100657.94;5072564;28;20040;-69
2023/08/20 11:18:43;;;;;;;5.70;4.80;;;;;;;35.57;42.81;100648.69;5072535;28;20037;-68
2023/08/20 11:21:09;;;;;;;6.00;5.03;;;;;;;36.21;43.00;100651.34;5072460;28;20032;-69
2023/08/20 11:23:35;;;;;;;5.65;4.55;;;;;;;36.60;41.22;100640.97;5072554;28;20049;-69
2023/08/20 11:26:01;;;;;;;8.73;4.82;;;;;;;36.73;40.08;100644.63;5072472;28;20119;-68
2023/08/20 11:28:28;;;;;;;6.03;4.82;;;;;;;37.06;39.84;100645.47;5072353;28;20062;-69
2023/08/20 11:30:54;;;;;;;6.43;4.88;;;;;;;37.17;40.39;100645.84;5071563;28;20044;-69
2023/08/20 11:33:21;;;;;;;6.95;5.13;;;;;;;37.44;39.46;100647.22;5072342;28;20032;-70
2023/08/20 11:35:46;;;;;;;5.22;4.72;;;;;;;37.63;39.92;100644.69;5072291;28;20641;-69
2023/08/20 11:38:13;;;;;;;5.00;4.50;;;;;;;37.52;40.48;100653.81;5072253;28;20119;-68
2023/08/20 11:40:38;;;;;;;;;;;;;;;36.74;40.61;100638.72;5072510;28;20115;-68
2023/08/20 11:43:04;;;;;;;5.90;5.28;;;;;;;37.33;39.89;100641.28;5072272;28;19963;-68
2023/08/20 11:45:29;;;;;;;6.97;5.28;;;;;;;37.67;40.15;100636.47;5072154;28;20753;-68
2023/08/20 11:47:58;;;;;;;6.47;4.60;;;;;;;37.90;39.35;100629.31;5072192;28;20048;-67
2023/08/20 11:50:24;;;;;;;5.80;5.20;;;;;;;36.69;41.19;100630.59;5071845;28;20024;-68
2023/08/20 11:52:53;;;;;;;9.57;5.55;;;;;;;37.12;41.66;100635.78;5072158;28;20189;-67
2023/08/20 11:55:23;;;;;;;6.75;5.20;;;;;;;37.01;41.00;100630.97;5071976;28;20075;-68
2023/08/20 11:57:53;;;;;;;5.75;4.45;;;;;;;36.78;41.66;100633.28;5072017;28;20041;-67
2023/08/20 12:00:26;;;;;;;5.03;4.53;;;;;;;36.85;40.28;100628.03;5071755;28;20107;-68
2023/08/20 12:02:55;;;;;;;5.90;4.18;;;;;;;37.44;40.79;100631.34;5072171;28;20119;-68
2023/08/20 12:05:27;;;;;;;6.07;4.78;;;;;;;37.73;40.29;100623.97;5071908;28;20039;-68
2023/08/20 12:07:57;;;;;;;6.60;4.63;;;;;;;38.42;38.71;100628.56;5071911;28;20090;-67
2023/08/20 12:10:24;;;;;;;5.20;4.70;;;;;;;38.49;37.92;100622.41;5071588;28;20079;-67
2023/08/20 12:12:50;;;;;;;4.82;4.30;;;;;;;38.07;38.07;100621.88;5071991;28;20043;-67
2023/08/20 12:15:16;;;;;;;6.55;4.75;;;;;;;37.78;38.68;100618.19;5071782;28;20028;-67
2023/08/20 12:17:41;;;;;;;5.68;4.30;;;;;;;38.33;38.05;100619.53;5072021;28;20422;-67
2023/08/20 12:20:12;;;;;;;7.50;4.80;;;;;;;38.55;36.53;100613.47;5069562;28;20037;-68
2023/08/20 12:22:38;;;;;;;4.75;4.25;;;;;;;38.95;36.77;100618.19;5062474;28;20039;-68
2023/08/20 12:25:04;;;;;;;;;;;;;;;39.24;36.01;100618.97;5060930;28;20082;-68
2023/08/20 12:27:29;;;;;;;6.63;4.07;;;;;;;38.90;36.92;100610.09;5057757;28;19982;-67
2023/08/20 12:29:55;;;;;;;4.40;4.00;;;;;;;38.99;35.69;100610.72;5056635;28;20511;-67
2023/08/20 12:32:20;;;;;;;6.40;4.10;;;;;;;39.27;35.26;100607.13;5061816;28;20048;-68
2023/08/20 12:34:46;;;;;;;3.90;3.50;;;;;;;39.26;32.75;100606.31;5061433;28;20445;-67
2023/08/20 12:37:11;;;;;;;4.53;3.53;;;;;;;39.39;33.62;100603.41;5061739;28;20040;-66
2023/08/20 12:39:36;;;;;;;7.23;3.57;;;;;;;38.85;34.14;100593.63;5060104;28;20095;-66
2023/08/20 12:42:02;;;;;;;3.83;3.47;;;;;;;39.63;34.33;100594.09;5062290;28;20166;-67
2023/08/20 12:44:28;;;;;;;4.78;3.85;;;;;;;38.49;35.12;100589.03;5064244;28;20033;-68
2023/08/20 12:46:53;;;;;;;9.80;4.63;;;;;;;39.49;33.67;100600.91;5064644;28;20090;-67
2023/08/20 12:49:18;;;;;;;4.50;4.10;;;;;;;39.18;33.81;100595.31;5065961;28;20681;-67
2023/08/20 12:51:44;;;;;;;4.73;3.80;;;;;;;38.46;33.59;100587.75;5064595;28;20290;-69
2023/08/20 12:54:09;;;;;;;6.37;5.80;;;;;;;38.44;34.64;100586.47;5064953;28;20032;-67
2023/08/20 12:56:35;;;;;;;5.27;4.13;;;;;;;38.58;33.77;100580.50;5050101;28;20037;-67
2023/08/20 12:59:00;;;;;;;5.30;3.53;;;;;;;39.26;35.04;100572.88;5063623;28;20098;-69
2023/08/20 13:01:26;;;;;;;5.50;4.10;;;;;;;39.58;33.87;100573.69;5065371;28;20044;-67
2023/08/20 13:03:52;;;;;;;4.15;3.47;;;;;;;39.82;32.74;100566.28;5064294;28;20079;-67
2023/08/20 13:06:17;;;;;;;5.75;3.58;;;;;;;39.84;32.74;100564.75;5062368;28;20091;-68
2023/08/20 13:08:44;;;;;;;5.65;3.30;;;;;;;40.10;32.07;100572.53;5065375;28;20103;-67
2023/08/20 13:11:13;;;;;;;;;;;;;;;39.79;33.98;100572.59;5067447;28;20040;-67
2023/08/20 13:13:39;;;;;;;5.00;4.50;;;;;;;40.19;33.30;100568.72;5063862;28;20333;-68
2023/08/20 13:16:05;;;;;;;5.68;4.57;;;;;;;39.89;33.49;100566.44;5065615;28;20173;-69
2023/08/20 13:18:30;;;;;;;5.05;3.65;;;;;;;40.08;33.52;100569.28;5063290;28;20511;-69
2023/08/20 13:20:56;;;;;;;4.22;3.83;;;;;;;39.90;33.53;100568.06;5063729;28;20032;-67
2023/08/20 13:23:21;;;;;;;4.82;3.45;;;;;;;40.18;32.51;100569.91;5065945;28;20040;-68
2023/08/20 13:25:47;;;;;;;10.70;9.70;;;;;;;40.26;33.83;100566.09;5074553;28;20028;-68
2023/08/20 13:28:12;;;;;;;4.85;4.40;;;;;;;40.34;31.87;100565.06;5074821;28;20479;-68
2023/08/20 13:30:37;;;;;;;3.97;3.33;;;;;;;40.29;32.21;100562.56;5074559;28;20040;-68
2023/08/20 13:33:03;;;;;;;4.45;3.40;;;;;;;39.77;31.98;100572.13;5074809;28;20036;-69
2023/08/20 13:35:29;;;;;;;4.82;3.42;;;;;;;40.24;31.64;100571.22;5074766;28;20040;-68
2023/08/20 13:37:54;;;;;;;5.88;3.35;;;;;;;39.31;31.96;100571.78;5073570;28;20048;-67
2023/08/20 13:40:20;;;;;;;4.60;3.35;;;;;;;40.05;30.98;100569.22;5074471;28;20082;-67
2023/08/20 13:42:45;;;;;;;4.00;3.60;;;;;;;39.30;32.47;100561.81;5074712;28;20059;-68
2023/08/20 13:45:10;;;;;;;;;;;;;;;38.95;32.07;100564.47;5074936;28;20047;-66
2023/08/20 13:47:36;;;;;;;5.57;3.70;;;;;;;38.89;33.03;100565.91;5074548;28;19912;-67
2023/08/20 13:50:04;;;;;;;5.33;3.43;;;;;;;38.43;33.53;100566.19;5073845;28;20039;-68
2023/08/20 13:52:29;;;;;;;6.63;3.38;;;;;;;37.73;34.90;100560.84;5056989;28;20707;-68
2023/08/20 13:54:55;;;;;;;6.05;3.60;;;;;;;37.24;35.71;100548.09;5059681;28;20056;-68
2023/08/20 13:57:20;;;;;;;5.40;3.53;;;;;;;36.75;37.01;100550.75;5074353;28;20115;-67
2023/08/20 13:59:46;;;;;;;4.00;3.57;;;;;;;36.69;37.50;100558.47;5074030;28;20407;-68
2023/08/20 14:02:12;;;;;;;5.57;4.03;;;;;;;36.73;38.25;100553.84;5074264;28;20033;-69
2023/08/20 14:04:37;;;;;;;5.88;3.78;;;;;;;36.17;38.16;100549.75;5074341;28;20098;-68
2023/08/20 14:07:03;;;;;;;3.70;3.30;;;;;;;36.19;40.00;100551.06;5074078;28;20033;-68
2023/08/20 14:09:28;;;;;;;4.03;3.50;;;;;;;35.73;38.62;100541.69;5073843;28;20399;-68
2023/08/20 14:11:53;;;;;;;6.10;3.40;;;;;;;35.52;38.65;100544.44;5074021;28;20416;-68
2023/08/20 14:14:19;;;;;;;4.93;3.60;;;;;;;35.56;39.13;100545.41;5073991;28;20082;-67
2023/08/20 14:16:44;;;;;;;5.63;3.47;;;;;;;35.65;39.79;100541.75;5073845;28;20470;-67
2023/08/20 14:19:09;;;;;;;4.17;3.60;;;;;;;35.42;41.93;100550.38;5073550;28;20044;-69
2023/08/20 14:21:36;;;;;;;5.07;3.67;;;;;;;35.24;40.52;100546.81;5073691;28;20041;-67
2023/08/20 14:24:02;;;;;;;5.38;3.35;;;;;;;35.30;40.34;100548.25;5073864;28;20037;-68
2023/08/20 14:26:27;;;;;;;4.53;3.60;;;;;;;35.07;41.21;100544.09;5073761;28;20051;-68
2023/08/20 14:28:52;;;;;;;5.13;4.57;;;;;;;34.85;42.93;100547.06;5073383;28;20044;-68
2023/08/20 14:31:19;;;;;;;5.90;3.73;;;;;;;34.68;41.40;100537.66;5073561;28;20127;-68
2023/08/20 14:33:44;;;;;;;4.22;3.60;;;;;;;34.61;42.05;100544.81;5073515;28;20048;-67
2023/08/20 14:36:10;;;;;;;4.93;3.53;;;;;;;34.52;42.83;100547.59;5073398;28;20039;-68
2023/08/20 14:38:35;;;;;;;5.20;3.90;;;;;;;34.26;42.52;100544.81;5073239;28;20491;-67
2023/08/20 14:41:02;;;;;;;4.80;3.70;;;;;;;33.93;42.23;100536.19;5073439;28;20075;-68
2023/08/20 14:43:29;;;;;;;4.38;3.50;;;;;;;34.03;43.27;100538.63;5073365;28;20036;-68
2023/08/20 14:45:55;;;;;;;5.97;3.20;;;;;;;34.08;43.36;100546.75;5073262;28;20136;-67
2023/08/20 14:48:21;;;;;;;4.20;3.80;;;;;;;34.06;42.63;100531.66;5073197;28;20052;-68
2023/08/20 14:50:47;;;;;;;5.30;3.78;;;;;;;33.87;43.11;100534.69;5072919;28;20071;-67
2023/08/20 14:53:13;;;;;;;6.72;3.70;;;;;;;34.03;43.53;100548.84;5073073;28;20045;-67
2023/08/20 14:55:39;;;;;;;4.90;3.80;;;;;;;34.02;42.47;100539.75;5073034;28;20127;-68
2023/08/20 14:58:04;;;;;;;4.57;3.40;;;;;;;33.83;42.49;100536.44;5071818;28;20049;-68
2023/08/20 15:00:32;;;;;;;8.10;3.60;;;;;;;33.89;42.82;100535.97;5072674;28;20495;-67
2023/08/20 15:02:58;;;;;;;6.97;3.85;;;;;;;33.80;43.57;100528.81;5072923;28;20036;-68
2023/08/20 15:05:23;;;;;;;4.23;3.23;;;;;;;33.83;42.73;100531.72;5072011;28;20049;-67
2023/08/20 15:07:49;;;;;;;4.50;3.83;;;;;;;33.55;42.79;100528.41;5072849;28;20078;-67
2023/08/20 15:10:14;;;;;;;8.37;3.73;;;;;;;33.67;42.48;100522.28;5072558;28;20044;-68
2023/08/20 15:12:39;;;;;;;3.97;3.57;;;;;;;33.73;43.22;100524.56;5072685;28;20169;-67
2023/08/20 15:15:06;;;;;;;4.50;3.70;;;;;;;33.59;42.38;100526.66;5072708;28;20041;-67
2023/08/20 15:17:32;;;;;;;5.97;3.67;;;;;;;33.42;42.32;100521.06;5072739;28;20048;-67
2023/08/20 15:19:57;;;;;;;4.93;3.40;;;;;;;33.50;42.47;100522.22;5072388;28;20033;-68
2023/08/20 15:22:23;;;;;;;4.93;3.30;;;;;;;33.37;42.32;100521.19;5072428;28;20399;-67
2023/08/20 15:24:50;;;;;;;4.37;3.30;;;;;;;33.36;41.64;100520.38;5072559;28;20106;-66
2023/08/20 15:27:17;;;;;;;6.10;3.55;;;;;;;33.29;41.33;100519.22;5072366;28;20033;-66
2023/08/20 15:29:42;;;;;;;5.05;3.63;;;;;;;33.25;41.39;100527.28;5072275;28;20070;-66
2023/08/20 15:32:08;;;;;;;7.93;6.30;;;;;;;33.22;41.72;100528.75;5072404;28;20079;-67
2023/08/20 15:34:34;;;;;;;4.47;3.67;;;;;;;33.20;41.84;100524.69;5072549;28;20083;-67
2023/08/20 15:36:59;;;;;;;4.00;3.60;;;;;;;33.07;41.60;100523.66;5072300;28;20293;-67